sensor_id;sensor_type;location;lat;lon;timestamp;P1;durP1;ratioP1;P2;durP2;ratioP2
76714;SDS011;65644;44.990;20.288;2024-01-30T00:01:52;57.43;;;38.40;;
76714;SDS011;65644;44.990;20.288;2024-01-30T00:04:18;57.77;;;37.77;;
76714;SDS011;65644;44.990;20.288;2024-01-30T00:06:44;56.77;;;38.43;;
76714;SDS011;65644;44.990;20.288;2024-01-30T00:09:10;61.40;;;40.30;;
76714;SDS011;65644;44.990;20.288;2024-01-30T00:11:39;57.97;;;40.13;;
76714;SDS011;65644;44.990;20.288;2024-01-30T00:14:05;60.23;;;41.43;;
76714;SDS011;65644;44.990;20.288;2024-01-30T00:16:31;71.23;;;45.73;;
76714;SDS011;65644;44.990;20.288;2024-01-30T00:18:57;65.10;;;43.97;;
76714;SDS011;65644;44.990;20.288;2024-01-30T00:21:24;59.37;;;41.37;;
76714;SDS011;65644;44.990;20.288;2024-01-30T00:23:50;65.80;;;41.87;;
76714;SDS011;65644;44.990;20.288;2024-01-30T00:26:16;64.27;;;44.30;;
76714;SDS011;65644;44.990;20.288;2024-01-30T00:28:43;76.10;;;49.77;;
76714;SDS011;65644;44.990;20.288;2024-01-30T00:31:09;70.47;;;46.33;;
76714;SDS011;65644;44.990;20.288;2024-01-30T00:33:41;65.77;;;44.80;;
76714;SDS011;65644;44.990;20.288;2024-01-30T00:36:08;69.97;;;47.27;;
76714;SDS011;65644;44.990;20.288;2024-01-30T00:38:34;64.27;;;43.43;;
76714;SDS011;65644;44.990;20.288;2024-01-30T00:41:00;68.93;;;45.63;;
76714;SDS011;65644;44.990;20.288;2024-01-30T00:43:30;64.47;;;45.00;;
76714;SDS011;65644;44.990;20.288;2024-01-30T00:45:56;65.50;;;42.97;;
76714;SDS011;65644;44.990;20.288;2024-01-30T00:48:23;64.30;;;43.47;;
76714;SDS011;65644;44.990;20.288;2024-01-30T00:50:49;65.03;;;43.90;;
76714;SDS011;65644;44.990;20.288;2024-01-30T00:53:15;65.77;;;43.93;;
76714;SDS011;65644;44.990;20.288;2024-01-30T00:55:41;64.83;;;43.23;;
76714;SDS011;65644;44.990;20.288;2024-01-30T00:58:07;62.80;;;43.13;;
76714;SDS011;65644;44.990;20.288;2024-01-30T01:00:33;67.47;;;44.17;;
76714;SDS011;65644;44.990;20.288;2024-01-30T01:02:59;68.63;;;45.10;;
76714;SDS011;65644;44.990;20.288;2024-01-30T01:05:25;75.63;;;49.40;;
76714;SDS011;65644;44.990;20.288;2024-01-30T01:07:52;68.37;;;45.20;;
76714;SDS011;65644;44.990;20.288;2024-01-30T01:10:18;68.03;;;45.73;;
76714;SDS011;65644;44.990;20.288;2024-01-30T01:12:44;71.53;;;46.33;;
76714;SDS011;65644;44.990;20.288;2024-01-30T01:15:11;71.87;;;46.43;;
76714;SDS011;65644;44.990;20.288;2024-01-30T01:17:38;66.70;;;45.73;;
76714;SDS011;65644;44.990;20.288;2024-01-30T01:20:04;67.83;;;45.03;;
76714;SDS011;65644;44.990;20.288;2024-01-30T01:22:31;66.97;;;45.63;;
76714;SDS011;65644;44.990;20.288;2024-01-30T01:24:58;72.33;;;45.63;;
76714;SDS011;65644;44.990;20.288;2024-01-30T01:27:24;62.53;;;44.07;;
76714;SDS011;65644;44.990;20.288;2024-01-30T01:29:50;66.83;;;43.57;;
76714;SDS011;65644;44.990;20.288;2024-01-30T01:32:16;68.73;;;44.90;;
76714;SDS011;65644;44.990;20.288;2024-01-30T01:34:43;65.43;;;44.73;;
76714;SDS011;65644;44.990;20.288;2024-01-30T01:37:09;62.80;;;42.47;;
76714;SDS011;65644;44.990;20.288;2024-01-30T01:39:35;60.80;;;42.77;;
76714;SDS011;65644;44.990;20.288;2024-01-30T01:42:01;65.90;;;43.17;;
76714;SDS011;65644;44.990;20.288;2024-01-30T01:44:27;71.03;;;43.70;;
76714;SDS011;65644;44.990;20.288;2024-01-30T01:46:53;76.03;;;47.87;;
76714;SDS011;65644;44.990;20.288;2024-01-30T01:49:20;70.00;;;46.60;;
76714;SDS011;65644;44.990;20.288;2024-01-30T01:51:47;68.63;;;46.77;;
76714;SDS011;65644;44.990;20.288;2024-01-30T01:54:14;73.17;;;48.60;;
76714;SDS011;65644;44.990;20.288;2024-01-30T01:56:40;73.70;;;49.53;;
76714;SDS011;65644;44.990;20.288;2024-01-30T01:59:07;70.00;;;46.77;;
76714;SDS011;65644;44.990;20.288;2024-01-30T02:01:33;74.17;;;48.83;;
76714;SDS011;65644;44.990;20.288;2024-01-30T02:04:00;71.23;;;47.67;;
76714;SDS011;65644;44.990;20.288;2024-01-30T02:06:26;75.70;;;47.07;;
76714;SDS011;65644;44.990;20.288;2024-01-30T02:08:53;70.87;;;47.63;;
76714;SDS011;65644;44.990;20.288;2024-01-30T02:11:22;71.73;;;46.40;;
76714;SDS011;65644;44.990;20.288;2024-01-30T02:13:49;70.30;;;47.87;;
76714;SDS011;65644;44.990;20.288;2024-01-30T02:16:15;68.50;;;45.20;;
76714;SDS011;65644;44.990;20.288;2024-01-30T02:18:42;67.97;;;45.33;;
76714;SDS011;65644;44.990;20.288;2024-01-30T02:21:12;67.20;;;43.60;;
76714;SDS011;65644;44.990;20.288;2024-01-30T02:23:38;78.10;;;47.47;;
76714;SDS011;65644;44.990;20.288;2024-01-30T02:26:05;72.13;;;45.53;;
76714;SDS011;65644;44.990;20.288;2024-01-30T02:28:31;67.93;;;43.70;;
76714;SDS011;65644;44.990;20.288;2024-01-30T02:30:57;70.70;;;44.03;;
76714;SDS011;65644;44.990;20.288;2024-01-30T02:33:23;66.67;;;42.90;;
76714;SDS011;65644;44.990;20.288;2024-01-30T02:35:49;61.67;;;41.53;;
76714;SDS011;65644;44.990;20.288;2024-01-30T02:38:15;69.03;;;43.27;;
76714;SDS011;65644;44.990;20.288;2024-01-30T02:40:42;69.80;;;44.67;;
76714;SDS011;65644;44.990;20.288;2024-01-30T02:43:08;66.03;;;42.53;;
76714;SDS011;65644;44.990;20.288;2024-01-30T02:45:34;64.97;;;41.97;;
76714;SDS011;65644;44.990;20.288;2024-01-30T02:48:00;66.20;;;41.23;;
76714;SDS011;65644;44.990;20.288;2024-01-30T02:50:26;70.73;;;42.13;;
76714;SDS011;65644;44.990;20.288;2024-01-30T02:52:52;62.30;;;38.77;;
76714;SDS011;65644;44.990;20.288;2024-01-30T02:55:18;58.70;;;39.50;;
76714;SDS011;65644;44.990;20.288;2024-01-30T02:57:44;71.13;;;40.03;;
76714;SDS011;65644;44.990;20.288;2024-01-30T03:00:11;63.17;;;39.07;;
76714;SDS011;65644;44.990;20.288;2024-01-30T03:02:37;66.30;;;40.27;;
76714;SDS011;65644;44.990;20.288;2024-01-30T03:05:06;62.87;;;40.13;;
76714;SDS011;65644;44.990;20.288;2024-01-30T03:07:32;59.70;;;38.57;;
76714;SDS011;65644;44.990;20.288;2024-01-30T03:09:59;59.23;;;37.83;;
76714;SDS011;65644;44.990;20.288;2024-01-30T03:12:25;62.03;;;38.53;;
76714;SDS011;65644;44.990;20.288;2024-01-30T03:14:51;61.93;;;38.57;;
76714;SDS011;65644;44.990;20.288;2024-01-30T03:17:17;66.07;;;40.67;;
76714;SDS011;65644;44.990;20.288;2024-01-30T03:19:43;64.53;;;38.87;;
76714;SDS011;65644;44.990;20.288;2024-01-30T03:22:09;60.07;;;37.63;;
76714;SDS011;65644;44.990;20.288;2024-01-30T03:24:35;66.63;;;39.53;;
76714;SDS011;65644;44.990;20.288;2024-01-30T03:27:02;62.50;;;40.43;;
76714;SDS011;65644;44.990;20.288;2024-01-30T03:29:28;63.60;;;40.70;;
76714;SDS011;65644;44.990;20.288;2024-01-30T03:31:54;71.27;;;43.43;;
76714;SDS011;65644;44.990;20.288;2024-01-30T03:34:20;68.03;;;43.17;;
76714;SDS011;65644;44.990;20.288;2024-01-30T03:36:46;68.10;;;41.53;;
76714;SDS011;65644;44.990;20.288;2024-01-30T03:39:12;66.73;;;41.23;;
76714;SDS011;65644;44.990;20.288;2024-01-30T03:41:38;65.07;;;41.03;;
76714;SDS011;65644;44.990;20.288;2024-01-30T03:44:07;65.67;;;41.13;;
76714;SDS011;65644;44.990;20.288;2024-01-30T03:46:33;60.33;;;39.57;;
76714;SDS011;65644;44.990;20.288;2024-01-30T03:48:59;67.80;;;40.73;;
76714;SDS011;65644;44.990;20.288;2024-01-30T03:51:25;63.57;;;40.20;;
76714;SDS011;65644;44.990;20.288;2024-01-30T03:53:51;60.33;;;39.33;;
76714;SDS011;65644;44.990;20.288;2024-01-30T03:56:17;62.10;;;39.67;;
76714;SDS011;65644;44.990;20.288;2024-01-30T03:58:43;62.30;;;39.77;;
76714;SDS011;65644;44.990;20.288;2024-01-30T04:01:15;58.03;;;37.57;;
76714;SDS011;65644;44.990;20.288;2024-01-30T04:03:41;60.73;;;39.67;;
76714;SDS011;65644;44.990;20.288;2024-01-30T04:06:09;61.03;;;39.43;;
76714;SDS011;65644;44.990;20.288;2024-01-30T04:08:35;62.53;;;39.03;;
76714;SDS011;65644;44.990;20.288;2024-01-30T04:11:05;67.10;;;42.07;;
76714;SDS011;65644;44.990;20.288;2024-01-30T04:13:31;67.13;;;43.30;;
76714;SDS011;65644;44.990;20.288;2024-01-30T04:15:58;64.83;;;41.40;;
76714;SDS011;65644;44.990;20.288;2024-01-30T04:18:26;68.77;;;42.77;;
76714;SDS011;65644;44.990;20.288;2024-01-30T04:20:52;71.53;;;44.77;;
76714;SDS011;65644;44.990;20.288;2024-01-30T04:23:18;67.33;;;42.77;;
76714;SDS011;65644;44.990;20.288;2024-01-30T04:25:44;70.47;;;45.03;;
76714;SDS011;65644;44.990;20.288;2024-01-30T04:28:10;68.37;;;42.47;;
76714;SDS011;65644;44.990;20.288;2024-01-30T04:30:39;67.73;;;43.40;;
76714;SDS011;65644;44.990;20.288;2024-01-30T04:33:05;65.10;;;43.20;;
76714;SDS011;65644;44.990;20.288;2024-01-30T04:35:31;69.23;;;43.47;;
76714;SDS011;65644;44.990;20.288;2024-01-30T04:37:57;70.63;;;44.40;;
76714;SDS011;65644;44.990;20.288;2024-01-30T04:40:24;67.47;;;43.10;;
76714;SDS011;65644;44.990;20.288;2024-01-30T04:42:50;77.37;;;46.87;;
76714;SDS011;65644;44.990;20.288;2024-01-30T04:45:16;75.87;;;47.00;;
76714;SDS011;65644;44.990;20.288;2024-01-30T04:47:42;72.50;;;44.80;;
76714;SDS011;65644;44.990;20.288;2024-01-30T04:50:08;75.40;;;46.57;;
76714;SDS011;65644;44.990;20.288;2024-01-30T04:52:34;77.03;;;46.90;;
76714;SDS011;65644;44.990;20.288;2024-01-30T04:55:01;74.80;;;48.70;;
76714;SDS011;65644;44.990;20.288;2024-01-30T04:57:27;74.57;;;46.03;;
76714;SDS011;65644;44.990;20.288;2024-01-30T04:59:53;72.17;;;46.27;;
76714;SDS011;65644;44.990;20.288;2024-01-30T05:02:19;72.83;;;45.87;;
76714;SDS011;65644;44.990;20.288;2024-01-30T05:04:45;74.83;;;46.87;;
76714;SDS011;65644;44.990;20.288;2024-01-30T05:07:11;72.10;;;45.60;;
76714;SDS011;65644;44.990;20.288;2024-01-30T05:09:37;70.77;;;45.13;;
76714;SDS011;65644;44.990;20.288;2024-01-30T05:12:03;70.23;;;44.03;;
76714;SDS011;65644;44.990;20.288;2024-01-30T05:14:29;70.83;;;45.40;;
76714;SDS011;65644;44.990;20.288;2024-01-30T05:16:55;66.23;;;44.83;;
76714;SDS011;65644;44.990;20.288;2024-01-30T05:19:21;66.70;;;44.63;;
76714;SDS011;65644;44.990;20.288;2024-01-30T05:21:48;69.33;;;45.33;;
76714;SDS011;65644;44.990;20.288;2024-01-30T05:24:14;70.93;;;44.40;;
76714;SDS011;65644;44.990;20.288;2024-01-30T05:26:40;71.77;;;44.90;;
76714;SDS011;65644;44.990;20.288;2024-01-30T05:29:07;70.37;;;45.73;;
76714;SDS011;65644;44.990;20.288;2024-01-30T05:31:36;70.23;;;44.17;;
76714;SDS011;65644;44.990;20.288;2024-01-30T05:34:02;70.67;;;45.27;;
76714;SDS011;65644;44.990;20.288;2024-01-30T05:36:28;70.17;;;43.93;;
76714;SDS011;65644;44.990;20.288;2024-01-30T05:38:55;69.67;;;44.97;;
76714;SDS011;65644;44.990;20.288;2024-01-30T05:41:21;68.67;;;45.80;;
76714;SDS011;65644;44.990;20.288;2024-01-30T05:43:47;72.70;;;45.03;;
76714;SDS011;65644;44.990;20.288;2024-01-30T05:46:13;74.80;;;46.53;;
76714;SDS011;65644;44.990;20.288;2024-01-30T05:48:39;69.60;;;45.77;;
76714;SDS011;65644;44.990;20.288;2024-01-30T05:51:06;72.73;;;44.90;;
76714;SDS011;65644;44.990;20.288;2024-01-30T05:53:33;71.83;;;46.37;;
76714;SDS011;65644;44.990;20.288;2024-01-30T05:56:01;76.63;;;48.40;;
76714;SDS011;65644;44.990;20.288;2024-01-30T05:58:27;78.37;;;48.80;;
76714;SDS011;65644;44.990;20.288;2024-01-30T06:00:53;72.87;;;46.57;;
76714;SDS011;65644;44.990;20.288;2024-01-30T06:03:20;74.53;;;46.73;;
76714;SDS011;65644;44.990;20.288;2024-01-30T06:05:46;72.67;;;47.03;;
76714;SDS011;65644;44.990;20.288;2024-01-30T06:08:12;66.50;;;46.00;;
76714;SDS011;65644;44.990;20.288;2024-01-30T06:10:38;74.00;;;48.20;;
76714;SDS011;65644;44.990;20.288;2024-01-30T06:13:05;71.90;;;47.10;;
76714;SDS011;65644;44.990;20.288;2024-01-30T06:15:31;74.20;;;48.50;;
76714;SDS011;65644;44.990;20.288;2024-01-30T06:17:58;74.70;;;48.23;;
76714;SDS011;65644;44.990;20.288;2024-01-30T06:20:24;76.50;;;47.93;;
76714;SDS011;65644;44.990;20.288;2024-01-30T06:22:50;76.87;;;50.10;;
76714;SDS011;65644;44.990;20.288;2024-01-30T06:25:16;78.20;;;50.87;;
76714;SDS011;65644;44.990;20.288;2024-01-30T06:27:42;76.87;;;50.33;;
76714;SDS011;65644;44.990;20.288;2024-01-30T06:30:09;76.70;;;50.27;;
76714;SDS011;65644;44.990;20.288;2024-01-30T06:32:35;72.30;;;49.83;;
76714;SDS011;65644;44.990;20.288;2024-01-30T06:35:01;74.43;;;48.77;;
76714;SDS011;65644;44.990;20.288;2024-01-30T06:37:27;81.10;;;52.93;;
76714;SDS011;65644;44.990;20.288;2024-01-30T06:39:53;81.43;;;53.20;;
76714;SDS011;65644;44.990;20.288;2024-01-30T06:42:20;83.13;;;53.17;;
76714;SDS011;65644;44.990;20.288;2024-01-30T06:44:46;80.80;;;52.40;;
76714;SDS011;65644;44.990;20.288;2024-01-30T06:47:12;84.83;;;52.33;;
76714;SDS011;65644;44.990;20.288;2024-01-30T06:49:39;81.67;;;53.70;;
76714;SDS011;65644;44.990;20.288;2024-01-30T06:52:07;76.67;;;51.47;;
76714;SDS011;65644;44.990;20.288;2024-01-30T06:54:33;79.90;;;51.90;;
76714;SDS011;65644;44.990;20.288;2024-01-30T06:56:59;81.30;;;51.67;;
76714;SDS011;65644;44.990;20.288;2024-01-30T06:59:26;77.07;;;54.07;;
76714;SDS011;65644;44.990;20.288;2024-01-30T07:01:52;79.40;;;52.23;;
76714;SDS011;65644;44.990;20.288;2024-01-30T07:04:18;72.10;;;46.73;;
76714;SDS011;65644;44.990;20.288;2024-01-30T07:06:44;70.77;;;45.63;;
76714;SDS011;65644;44.990;20.288;2024-01-30T07:09:10;68.60;;;44.50;;
76714;SDS011;65644;44.990;20.288;2024-01-30T07:11:36;66.00;;;43.67;;
76714;SDS011;65644;44.990;20.288;2024-01-30T07:14:02;63.60;;;44.27;;
76714;SDS011;65644;44.990;20.288;2024-01-30T07:16:31;59.47;;;41.67;;
76714;SDS011;65644;44.990;20.288;2024-01-30T07:18:57;59.55;;;41.65;;
76714;SDS011;65644;44.990;20.288;2024-01-30T07:21:23;56.75;;;40.60;;
76714;SDS011;65644;44.990;20.288;2024-01-30T07:23:53;54.65;;;39.92;;
76714;SDS011;65644;44.990;20.288;2024-01-30T07:26:20;58.78;;;41.38;;
76714;SDS011;65644;44.990;20.288;2024-01-30T07:28:46;56.72;;;39.65;;
76714;SDS011;65644;44.990;20.288;2024-01-30T07:31:12;54.88;;;39.10;;
76714;SDS011;65644;44.990;20.288;2024-01-30T07:33:38;56.03;;;40.40;;
76714;SDS011;65644;44.990;20.288;2024-01-30T07:36:04;52.45;;;39.95;;
76714;SDS011;65644;44.990;20.288;2024-01-30T07:38:33;55.38;;;38.83;;
76714;SDS011;65644;44.990;20.288;2024-01-30T07:40:59;49.83;;;37.78;;
76714;SDS011;65644;44.990;20.288;2024-01-30T07:43:25;49.72;;;36.95;;
76714;SDS011;65644;44.990;20.288;2024-01-30T07:45:51;49.97;;;37.45;;
76714;SDS011;65644;44.990;20.288;2024-01-30T07:48:18;48.00;;;36.80;;
76714;SDS011;65644;44.990;20.288;2024-01-30T07:50:44;47.67;;;35.55;;
76714;SDS011;65644;44.990;20.288;2024-01-30T07:53:10;49.67;;;34.50;;
76714;SDS011;65644;44.990;20.288;2024-01-30T07:55:36;43.92;;;33.40;;
76714;SDS011;65644;44.990;20.288;2024-01-30T07:58:02;38.78;;;32.22;;
76714;SDS011;65644;44.990;20.288;2024-01-30T08:00:29;41.10;;;32.75;;
76714;SDS011;65644;44.990;20.288;2024-01-30T08:02:56;43.63;;;33.97;;
76714;SDS011;65644;44.990;20.288;2024-01-30T08:05:22;39.42;;;32.05;;
76714;SDS011;65644;44.990;20.288;2024-01-30T08:07:49;40.67;;;31.55;;
76714;SDS011;65644;44.990;20.288;2024-01-30T08:10:15;43.53;;;32.95;;
76714;SDS011;65644;44.990;20.288;2024-01-30T08:12:43;39.70;;;32.33;;
76714;SDS011;65644;44.990;20.288;2024-01-30T08:15:10;39.72;;;31.17;;
76714;SDS011;65644;44.990;20.288;2024-01-30T08:17:37;40.92;;;31.40;;
76714;SDS011;65644;44.990;20.288;2024-01-30T08:20:03;42.63;;;30.48;;
76714;SDS011;65644;44.990;20.288;2024-01-30T08:22:29;39.55;;;27.70;;
76714;SDS011;65644;44.990;20.288;2024-01-30T08:24:56;38.28;;;27.02;;
76714;SDS011;65644;44.990;20.288;2024-01-30T08:27:22;56.38;;;40.05;;
76714;SDS011;65644;44.990;20.288;2024-01-30T08:29:48;37.38;;;27.90;;
76714;SDS011;65644;44.990;20.288;2024-01-30T08:32:15;39.80;;;27.75;;
76714;SDS011;65644;44.990;20.288;2024-01-30T08:34:41;34.88;;;24.90;;
76714;SDS011;65644;44.990;20.288;2024-01-30T08:37:07;36.95;;;25.83;;
76714;SDS011;65644;44.990;20.288;2024-01-30T08:39:33;35.88;;;25.60;;
76714;SDS011;65644;44.990;20.288;2024-01-30T08:41:59;40.55;;;28.25;;
76714;SDS011;65644;44.990;20.288;2024-01-30T08:44:26;34.28;;;24.73;;
76714;SDS011;65644;44.990;20.288;2024-01-30T08:46:52;34.22;;;24.10;;
76714;SDS011;65644;44.990;20.288;2024-01-30T08:49:19;31.88;;;22.92;;
76714;SDS011;65644;44.990;20.288;2024-01-30T08:51:46;33.95;;;24.33;;
76714;SDS011;65644;44.990;20.288;2024-01-30T08:54:12;33.30;;;23.52;;
76714;SDS011;65644;44.990;20.288;2024-01-30T08:56:38;30.00;;;22.23;;
76714;SDS011;65644;44.990;20.288;2024-01-30T08:59:04;31.17;;;21.77;;
76714;SDS011;65644;44.990;20.288;2024-01-30T09:01:30;33.03;;;23.40;;
76714;SDS011;65644;44.990;20.288;2024-01-30T09:03:56;30.58;;;22.58;;
76714;SDS011;65644;44.990;20.288;2024-01-30T09:06:22;28.00;;;21.00;;
76714;SDS011;65644;44.990;20.288;2024-01-30T09:08:53;29.15;;;20.13;;
76714;SDS011;65644;44.990;20.288;2024-01-30T09:11:19;28.95;;;20.48;;
76714;SDS011;65644;44.990;20.288;2024-01-30T09:13:45;27.38;;;20.90;;
76714;SDS011;65644;44.990;20.288;2024-01-30T09:16:11;25.63;;;19.73;;
76714;SDS011;65644;44.990;20.288;2024-01-30T09:18:37;24.58;;;18.90;;
76714;SDS011;65644;44.990;20.288;2024-01-30T09:21:04;24.77;;;18.75;;
76714;SDS011;65644;44.990;20.288;2024-01-30T09:23:30;25.77;;;18.63;;
76714;SDS011;65644;44.990;20.288;2024-01-30T09:25:56;24.77;;;19.40;;
76714;SDS011;65644;44.990;20.288;2024-01-30T09:28:22;28.23;;;19.58;;
76714;SDS011;65644;44.990;20.288;2024-01-30T09:30:48;25.98;;;18.73;;
76714;SDS011;65644;44.990;20.288;2024-01-30T09:33:14;28.45;;;19.92;;
76714;SDS011;65644;44.990;20.288;2024-01-30T09:35:40;27.88;;;19.45;;
76714;SDS011;65644;44.990;20.288;2024-01-30T09:38:06;25.52;;;18.73;;
76714;SDS011;65644;44.990;20.288;2024-01-30T09:40:33;31.02;;;20.30;;
76714;SDS011;65644;44.990;20.288;2024-01-30T09:42:59;25.27;;;19.20;;
76714;SDS011;65644;44.990;20.288;2024-01-30T09:45:25;29.95;;;20.73;;
76714;SDS011;65644;44.990;20.288;2024-01-30T09:47:52;23.85;;;18.63;;
76714;SDS011;65644;44.990;20.288;2024-01-30T09:50:19;27.58;;;18.50;;
76714;SDS011;65644;44.990;20.288;2024-01-30T09:52:45;23.80;;;18.35;;
76714;SDS011;65644;44.990;20.288;2024-01-30T09:55:12;26.17;;;18.38;;
76714;SDS011;65644;44.990;20.288;2024-01-30T09:57:38;24.00;;;17.75;;
76714;SDS011;65644;44.990;20.288;2024-01-30T10:00:06;26.08;;;17.65;;
76714;SDS011;65644;44.990;20.288;2024-01-30T10:02:34;26.65;;;17.23;;
76714;SDS011;65644;44.990;20.288;2024-01-30T10:05:00;29.95;;;18.40;;
76714;SDS011;65644;44.990;20.288;2024-01-30T10:07:27;25.30;;;17.60;;
76714;SDS011;65644;44.990;20.288;2024-01-30T10:09:53;22.70;;;17.05;;
76714;SDS011;65644;44.990;20.288;2024-01-30T10:12:21;23.92;;;16.52;;
76714;SDS011;65644;44.990;20.288;2024-01-30T10:14:47;27.85;;;18.30;;
76714;SDS011;65644;44.990;20.288;2024-01-30T10:17:14;24.23;;;17.60;;
76714;SDS011;65644;44.990;20.288;2024-01-30T10:19:40;22.85;;;17.55;;
76714;SDS011;65644;44.990;20.288;2024-01-30T10:22:06;25.30;;;18.02;;
76714;SDS011;65644;44.990;20.288;2024-01-30T10:24:35;24.02;;;17.05;;
76714;SDS011;65644;44.990;20.288;2024-01-30T10:27:02;23.08;;;15.90;;
76714;SDS011;65644;44.990;20.288;2024-01-30T10:29:28;23.13;;;17.17;;
76714;SDS011;65644;44.990;20.288;2024-01-30T10:31:59;22.33;;;15.65;;
76714;SDS011;65644;44.990;20.288;2024-01-30T10:34:26;22.70;;;15.63;;
76714;SDS011;65644;44.990;20.288;2024-01-30T10:36:55;39.78;;;23.75;;
76714;SDS011;65644;44.990;20.288;2024-01-30T10:39:25;78.78;;;43.70;;
76714;SDS011;65644;44.990;20.288;2024-01-30T10:41:56;50.30;;;28.92;;
76714;SDS011;65644;44.990;20.288;2024-01-30T10:44:25;19.65;;;14.80;;
76714;SDS011;65644;44.990;20.288;2024-01-30T10:46:55;21.35;;;15.45;;
76714;SDS011;65644;44.990;20.288;2024-01-30T10:49:22;47.10;;;24.45;;
76714;SDS011;65644;44.990;20.288;2024-01-30T10:51:49;19.95;;;14.80;;
76714;SDS011;65644;44.990;20.288;2024-01-30T10:54:16;17.00;;;13.20;;
76714;SDS011;65644;44.990;20.288;2024-01-30T10:56:43;23.17;;;15.63;;
76714;SDS011;65644;44.990;20.288;2024-01-30T10:59:09;22.55;;;14.10;;
76714;SDS011;65644;44.990;20.288;2024-01-30T11:01:36;20.35;;;14.07;;
76714;SDS011;65644;44.990;20.288;2024-01-30T11:04:02;23.80;;;15.90;;
76714;SDS011;65644;44.990;20.288;2024-01-30T11:06:29;19.30;;;14.18;;
76714;SDS011;65644;44.990;20.288;2024-01-30T11:09:02;19.73;;;13.93;;
76714;SDS011;65644;44.990;20.288;2024-01-30T11:11:29;19.13;;;13.18;;
76714;SDS011;65644;44.990;20.288;2024-01-30T11:13:55;19.35;;;13.52;;
76714;SDS011;65644;44.990;20.288;2024-01-30T11:16:21;18.02;;;14.93;;
76714;SDS011;65644;44.990;20.288;2024-01-30T11:18:50;26.10;;;17.55;;
76714;SDS011;65644;44.990;20.288;2024-01-30T11:21:17;19.00;;;13.85;;
76714;SDS011;65644;44.990;20.288;2024-01-30T11:23:43;23.10;;;13.73;;
76714;SDS011;65644;44.990;20.288;2024-01-30T11:26:12;20.10;;;14.20;;
76714;SDS011;65644;44.990;20.288;2024-01-30T11:28:38;18.45;;;12.93;;
76714;SDS011;65644;44.990;20.288;2024-01-30T11:31:04;20.42;;;13.95;;
76714;SDS011;65644;44.990;20.288;2024-01-30T11:33:32;21.88;;;14.00;;
76714;SDS011;65644;44.990;20.288;2024-01-30T11:35:59;19.02;;;14.20;;
76714;SDS011;65644;44.990;20.288;2024-01-30T11:38:26;17.77;;;14.65;;
76714;SDS011;65644;44.990;20.288;2024-01-30T11:40:55;20.27;;;14.65;;
76714;SDS011;65644;44.990;20.288;2024-01-30T11:43:24;19.77;;;13.98;;
76714;SDS011;65644;44.990;20.288;2024-01-30T11:45:50;19.42;;;14.73;;
76714;SDS011;65644;44.990;20.288;2024-01-30T11:48:17;17.23;;;12.82;;
76714;SDS011;65644;44.990;20.288;2024-01-30T11:50:43;19.42;;;12.82;;
76714;SDS011;65644;44.990;20.288;2024-01-30T11:53:12;18.33;;;13.77;;
76714;SDS011;65644;44.990;20.288;2024-01-30T11:55:38;20.05;;;14.63;;
76714;SDS011;65644;44.990;20.288;2024-01-30T11:58:04;19.10;;;14.45;;
76714;SDS011;65644;44.990;20.288;2024-01-30T12:00:31;22.83;;;15.68;;
76714;SDS011;65644;44.990;20.288;2024-01-30T12:02:58;18.92;;;13.57;;
76714;SDS011;65644;44.990;20.288;2024-01-30T12:05:25;17.73;;;12.70;;
76714;SDS011;65644;44.990;20.288;2024-01-30T12:07:52;15.60;;;11.70;;
76714;SDS011;65644;44.990;20.288;2024-01-30T12:10:18;17.10;;;12.23;;
76714;SDS011;65644;44.990;20.288;2024-01-30T12:12:46;18.15;;;13.10;;
76714;SDS011;65644;44.990;20.288;2024-01-30T12:15:12;17.13;;;12.50;;
76714;SDS011;65644;44.990;20.288;2024-01-30T12:17:39;19.73;;;12.70;;
76714;SDS011;65644;44.990;20.288;2024-01-30T12:20:09;19.75;;;12.93;;
76714;SDS011;65644;44.990;20.288;2024-01-30T12:22:36;18.05;;;12.95;;
76714;SDS011;65644;44.990;20.288;2024-01-30T12:25:12;15.40;;;12.55;;
76714;SDS011;65644;44.990;20.288;2024-01-30T12:27:38;17.40;;;10.55;;
76714;SDS011;65644;44.990;20.288;2024-01-30T12:30:08;26.63;;;16.65;;
76714;SDS011;65644;44.990;20.288;2024-01-30T12:32:35;15.50;;;10.73;;
76714;SDS011;65644;44.990;20.288;2024-01-30T12:35:01;17.42;;;11.90;;
76714;SDS011;65644;44.990;20.288;2024-01-30T12:37:27;14.55;;;10.57;;
76714;SDS011;65644;44.990;20.288;2024-01-30T12:39:54;12.35;;;9.00;;
76714;SDS011;65644;44.990;20.288;2024-01-30T12:42:20;12.38;;;8.38;;
76714;SDS011;65644;44.990;20.288;2024-01-30T12:44:47;12.05;;;9.32;;
76714;SDS011;65644;44.990;20.288;2024-01-30T12:47:14;11.95;;;9.70;;
76714;SDS011;65644;44.990;20.288;2024-01-30T12:49:41;17.30;;;10.55;;
76714;SDS011;65644;44.990;20.288;2024-01-30T12:52:08;12.52;;;9.40;;
76714;SDS011;65644;44.990;20.288;2024-01-30T12:54:34;8.57;;;7.00;;
76714;SDS011;65644;44.990;20.288;2024-01-30T12:57:00;9.60;;;7.88;;
76714;SDS011;65644;44.990;20.288;2024-01-30T12:59:26;9.90;;;7.28;;
76714;SDS011;65644;44.990;20.288;2024-01-30T13:01:52;11.13;;;8.75;;
76714;SDS011;65644;44.990;20.288;2024-01-30T13:04:18;15.13;;;9.43;;
76714;SDS011;65644;44.990;20.288;2024-01-30T13:06:44;11.60;;;8.18;;
76714;SDS011;65644;44.990;20.288;2024-01-30T13:09:11;10.20;;;7.47;;
76714;SDS011;65644;44.990;20.288;2024-01-30T13:11:37;11.02;;;7.82;;
76714;SDS011;65644;44.990;20.288;2024-01-30T13:14:03;9.82;;;7.00;;
76714;SDS011;65644;44.990;20.288;2024-01-30T13:16:29;8.45;;;7.03;;
76714;SDS011;65644;44.990;20.288;2024-01-30T13:18:55;13.90;;;9.90;;
76714;SDS011;65644;44.990;20.288;2024-01-30T13:21:22;31.25;;;20.65;;
76714;SDS011;65644;44.990;20.288;2024-01-30T13:23:48;36.17;;;22.48;;
76714;SDS011;65644;44.990;20.288;2024-01-30T13:26:18;12.32;;;7.90;;
76714;SDS011;65644;44.990;20.288;2024-01-30T13:28:44;9.70;;;6.10;;
76714;SDS011;65644;44.990;20.288;2024-01-30T13:31:10;7.38;;;5.88;;
76714;SDS011;65644;44.990;20.288;2024-01-30T13:33:36;25.38;;;14.18;;
76714;SDS011;65644;44.990;20.288;2024-01-30T13:36:02;72.15;;;34.28;;
76714;SDS011;65644;44.990;20.288;2024-01-30T13:38:28;37.15;;;20.42;;
76714;SDS011;65644;44.990;20.288;2024-01-30T13:40:54;20.75;;;12.02;;
76714;SDS011;65644;44.990;20.288;2024-01-30T13:43:21;12.50;;;7.32;;
76714;SDS011;65644;44.990;20.288;2024-01-30T13:45:47;48.30;;;28.70;;
76714;SDS011;65644;44.990;20.288;2024-01-30T13:48:13;7.15;;;6.10;;
76714;SDS011;65644;44.990;20.288;2024-01-30T13:50:39;21.35;;;14.90;;
76714;SDS011;65644;44.990;20.288;2024-01-30T13:53:05;7.40;;;5.85;;
76714;SDS011;65644;44.990;20.288;2024-01-30T13:55:31;7.57;;;5.57;;
76714;SDS011;65644;44.990;20.288;2024-01-30T13:57:57;6.82;;;5.20;;
76714;SDS011;65644;44.990;20.288;2024-01-30T14:00:23;15.98;;;10.88;;
76714;SDS011;65644;44.990;20.288;2024-01-30T14:02:51;8.15;;;5.22;;
76714;SDS011;65644;44.990;20.288;2024-01-30T14:05:19;5.47;;;4.93;;
76714;SDS011;65644;44.990;20.288;2024-01-30T14:07:46;8.75;;;7.20;;